Time;durP1;ratioP1;P1;durP2;ratioP2;P2;SDS_P1;SDS_P2;PMS_P1;PMS_P2;Temp;Humidity;BMP_temperature;BMP_pressure;BME280_temperature;BME280_humidity;BME280_pressure;Samples;Min_cycle;Max_cycle;Signal;HPM_P1;HPM_P2
2022/10/15 00:01:06;;;;;;;8.70;3.13;;;;;;;14.22;78.82;100687.03;4993569;28;20065;-71
2022/10/15 00:03:34;;;;;;;7.10;2.85;;;;;;;14.19;79.19;100678.28;4993655;28;20523;-69
2022/10/15 00:06:03;;;;;;;6.50;3.08;;;;;;;14.24;78.96;100676.66;4993584;28;20030;-70
2022/10/15 00:08:28;;;;;;;;;;;;;;;14.22;78.83;100675.78;4993666;28;20481;-70
2022/10/15 00:10:54;;;;;;;8.23;3.35;;;;;;;14.21;78.60;100676.59;4993172;28;19920;-68
2022/10/15 00:13:19;;;;;;;7.75;2.95;;;;;;;14.21;78.82;100667.09;4993124;28;20345;-71
2022/10/15 00:15:45;;;;;;;5.90;3.20;;;;;;;14.18;78.90;100669.63;4993326;28;20045;-70
2022/10/15 00:18:10;;;;;;;10.52;3.50;;;;;;;14.21;79.04;100672.28;4993482;28;20058;-71
2022/10/15 00:20:35;;;;;;;8.27;3.15;;;;;;;14.19;78.93;100670.47;4979877;28;20071;-68
2022/10/15 00:23:01;;;;;;;6.75;2.92;;;;;;;14.14;79.34;100675.56;4972293;28;20382;-70
2022/10/15 00:25:27;;;;;;;8.73;3.17;;;;;;;14.18;78.97;100672.22;4973052;28;20038;-69
2022/10/15 00:27:52;;;;;;;9.48;3.50;;;;;;;14.13;79.47;100671.22;4973030;28;20081;-69
2022/10/15 00:30:18;;;;;;;5.15;2.75;;;;;;;14.10;78.89;100659.88;4972968;28;20059;-69
2022/10/15 00:32:43;;;;;;;9.30;3.67;;;;;;;14.07;79.00;100658.09;4973107;28;20033;-67
2022/10/15 00:35:08;;;;;;;7.68;3.40;;;;;;;13.95;79.46;100643.06;4973143;28;20027;-70
2022/10/15 00:37:34;;;;;;;8.75;2.60;;;;;;;13.94;79.90;100651.69;4973009;28;20102;-71
2022/10/15 00:39:59;;;;;;;5.15;3.00;;;;;;;13.96;80.00;100651.75;4972941;28;20393;-69
2022/10/15 00:42:25;;;;;;;9.18;2.83;;;;;;;13.89;79.40;100640.31;4972767;28;20039;-70
2022/10/15 00:44:56;;;;;;;8.13;3.08;;;;;;;14.00;79.21;100663.94;4972973;28;20027;-69
2022/10/15 00:47:43;;;;;;;8.25;3.00;;;;;;;13.96;79.38;100660.41;4973034;28;20026;-69
2022/10/15 00:50:24;;;;;;;5.25;2.42;;;;;;;13.97;79.67;100658.66;4972687;28;20502;-69
2022/10/15 00:53:04;;;;;;;5.80;2.78;;;;;;;13.93;79.90;100662.88;4970262;28;20055;-70
2022/10/15 00:55:37;;;;;;;6.60;2.67;;;;;;;13.96;79.59;100663.00;4970275;28;20023;-70
2022/10/15 00:58:14;;;;;;;6.22;2.75;;;;;;;13.95;79.41;100660.38;4972534;28;20085;-68
2022/10/15 01:00:39;;;;;;;7.40;3.30;;;;;;;13.91;79.49;100657.66;4972366;28;20022;-70
2022/10/15 01:03:05;;;;;;;5.63;2.50;;;;;;;13.97;79.39;100663.84;4972039;28;20031;-69
2022/10/15 01:05:32;;;;;;;7.38;2.90;;;;;;;13.96;79.15;100665.59;4972296;28;20497;-70
2022/10/15 01:07:57;;;;;;;8.32;2.72;;;;;;;13.92;79.55;100658.56;4972298;28;20041;-70
2022/10/15 01:10:31;;;;;;;8.50;2.80;;;;;;;13.93;79.63;100660.28;4972248;28;20468;-70
2022/10/15 01:13:24;;;;;;;8.40;2.97;;;;;;;13.96;79.33;100664.72;4972185;28;20030;-71
2022/10/15 01:15:56;;;;;;;6.72;2.88;;;;;;;13.95;78.94;100669.00;4971888;28;20049;-68
2022/10/15 01:18:35;;;;;;;5.10;2.35;;;;;;;13.95;78.80;100665.56;4971845;28;20027;-69
2022/10/15 01:21:37;;;;;;;8.15;2.80;;;;;;;13.82;78.73;100656.53;4972203;28;20459;-69
2022/10/15 01:24:11;;;;;;;6.13;2.50;;;;;;;13.84;79.01;100670.44;4950321;29;20075;-70
2022/10/15 01:27:28;;;;;;;7.97;2.47;;;;;;;13.83;78.89;100664.41;4950493;29;20031;-69
2022/10/15 01:30:17;;;;;;;10.15;3.00;;;;;;;13.77;79.05;100652.94;4912045;29;20039;-69
2022/10/15 01:32:52;;;;;;;7.20;2.63;;;;;;;13.56;78.89;100638.56;4912153;29;20061;-70
2022/10/15 01:35:30;;;;;;;6.80;2.25;;;;;;;13.59;78.48;100636.94;4911878;29;20044;-68
2022/10/15 01:37:55;;;;;;;4.05;2.40;;;;;;;13.51;78.56;100627.19;4911954;29;20096;-73
2022/10/15 01:40:42;;;;;;;3.97;2.28;;;;;;;13.75;78.76;100664.16;4912121;29;20041;-67
2022/10/15 01:43:12;;;;;;;8.05;3.00;;;;;;;13.74;78.05;100667.63;4911684;29;20036;-68
2022/10/15 01:45:49;;;;;;;;;;;;;;;13.77;78.32;100666.81;4913225;29;20039;-70
2022/10/15 01:48:16;;;;;;;8.07;2.70;;;;;;;13.61;77.62;100638.69;4912132;29;19919;-71
2022/10/15 01:50:46;;;;;;;7.00;2.40;;;;;;;13.73;77.56;100673.63;4912034;29;20040;-69
2022/10/15 01:53:14;;;;;;;;;;;;;;;13.66;77.65;100674.31;4912071;29;20040;-68
2022/10/15 01:55:43;;;;;;;7.80;2.50;;;;;;;13.66;78.01;100676.91;4923300;29;19930;-69
2022/10/15 01:58:11;;;;;;;8.55;2.53;;;;;;;13.71;77.45;100677.91;4930865;29;20574;-70
2022/10/15 02:00:40;;;;;;;5.43;2.85;;;;;;;13.71;77.37;100680.50;4930725;29;20047;-67
2022/10/15 02:03:05;;;;;;;7.75;2.72;;;;;;;13.71;77.49;100680.50;4942365;28;20512;-71
2022/10/15 02:05:44;;;;;;;8.25;3.28;;;;;;;13.67;77.07;100686.44;4971712;28;20031;-70
2022/10/15 02:09:08;;;;;;;7.88;2.65;;;;;;;13.65;77.00;100676.88;4971823;28;20104;-70
2022/10/15 02:11:49;;;;;;;5.97;2.50;;;;;;;13.61;77.03;100672.41;4873257;29;20718;-70
2022/10/15 02:14:23;;;;;;;8.32;3.30;;;;;;;13.65;76.87;100684.66;4874179;29;20100;-70
2022/10/15 02:16:58;;;;;;;6.75;2.63;;;;;;;13.73;77.19;100703.88;4873923;29;20057;-69
2022/10/15 02:19:50;;;;;;;4.15;2.35;;;;;;;13.66;77.13;100695.06;4874415;29;20056;-67
2022/10/15 02:22:30;;;;;;;6.35;2.80;;;;;;;13.62;77.33;100695.81;4873839;29;20476;-69
2022/10/15 02:25:05;;;;;;;9.70;2.75;;;;;;;13.67;76.99;100702.00;4874138;29;20092;-69
2022/10/15 02:27:32;;;;;;;6.20;2.55;;;;;;;13.62;76.72;100698.41;4873872;29;20077;-68
2022/10/15 02:30:01;;;;;;;6.25;2.72;;;;;;;13.66;76.60;100702.84;4874019;29;20037;-69
2022/10/15 02:32:29;;;;;;;8.93;2.42;;;;;;;13.60;76.60;100710.44;4873818;29;20049;-68
2022/10/15 02:34:54;;;;;;;5.68;2.72;;;;;;;13.50;77.17;100711.91;4874089;29;20069;-70
2022/10/15 02:37:23;;;;;;;8.85;2.28;;;;;;;13.48;76.72;100704.91;4873939;29;20060;-71
2022/10/15 02:39:48;;;;;;;6.63;2.67;;;;;;;13.14;76.47;100641.69;4873942;29;20037;-69
2022/10/15 02:42:16;;;;;;;5.65;2.25;;;;;;;13.54;76.63;100710.28;4874436;29;20132;-70
2022/10/15 02:44:42;;;;;;;5.88;2.90;;;;;;;13.54;76.90;100705.94;4873976;29;20456;-73
2022/10/15 02:47:07;;;;;;;12.20;2.78;;;;;;;13.53;76.59;100701.63;4840956;29;20050;-70
2022/10/15 02:49:32;;;;;;;12.27;2.80;;;;;;;13.55;76.60;100704.25;4911172;29;20063;-70
2022/10/15 02:51:58;;;;;;;5.90;2.30;;;;;;;13.54;76.54;100699.91;4929304;29;20066;-69
2022/10/15 02:54:23;;;;;;;6.32;2.42;;;;;;;13.26;76.67;100668.81;4930364;29;20035;-70
2022/10/15 02:56:49;;;;;;;6.93;2.72;;;;;;;13.43;77.16;100695.28;4932844;29;20036;-71
2022/10/15 02:59:14;;;;;;;6.43;2.40;;;;;;;13.42;77.08;100693.53;4968395;28;20100;-71
2022/10/15 03:01:40;;;;;;;8.38;2.60;;;;;;;13.39;77.07;100693.41;4993966;28;20547;-69
2022/10/15 03:04:05;;;;;;;7.47;2.35;;;;;;;13.31;77.32;100692.31;4993900;28;20031;-67
2022/10/15 03:06:31;;;;;;;5.70;2.25;;;;;;;13.30;77.50;100695.72;4981950;28;20031;-70
2022/10/15 03:08:56;;;;;;;4.90;2.15;;;;;;;13.26;77.37;100696.47;4974661;28;20478;-70
2022/10/15 03:11:22;;;;;;;7.45;2.13;;;;;;;13.24;77.59;100693.81;4973952;28;20030;-71
2022/10/15 03:13:47;;;;;;;6.63;2.17;;;;;;;13.23;77.77;100696.38;4974603;28;20034;-70
2022/10/15 03:16:13;;;;;;;3.60;2.28;;;;;;;13.23;77.47;100689.50;4974363;28;20055;-67
2022/10/15 03:18:38;;;;;;;8.68;2.28;;;;;;;13.26;77.28;100689.56;4971971;28;20034;-68
2022/10/15 03:21:05;;;;;;;5.50;2.20;;;;;;;13.19;77.73;100685.03;4974068;28;20102;-70
2022/10/15 03:23:31;;;;;;;5.55;2.00;;;;;;;13.16;77.58;100684.94;4971948;28;20039;-69
2022/10/15 03:25:56;;;;;;;7.70;2.40;;;;;;;13.18;77.70;100690.19;4974214;28;20022;-73
2022/10/15 03:28:22;;;;;;;5.68;2.38;;;;;;;13.21;77.64;100685.09;4988789;28;20039;-70
2022/10/15 03:30:47;;;;;;;6.28;2.17;;;;;;;13.27;77.50;100693.94;4973594;28;20034;-67
2022/10/15 03:33:13;;;;;;;5.97;2.10;;;;;;;13.19;77.78;100689.34;4973316;28;20426;-69
2022/10/15 03:35:39;;;;;;;9.43;2.40;;;;;;;13.22;77.71;100707.56;4973166;28;20405;-70
2022/10/15 03:38:05;;;;;;;4.47;2.35;;;;;;;13.27;77.40;100704.28;4974130;28;20066;-68
2022/10/15 03:40:30;;;;;;;5.10;1.83;;;;;;;13.14;77.20;100672.78;4973298;28;20162;-68
2022/10/15 03:42:56;;;;;;;5.93;2.22;;;;;;;13.18;76.72;100667.72;4973154;28;20038;-67
2022/10/15 03:45:23;;;;;;;5.25;2.00;;;;;;;13.49;77.11;100709.28;4973545;28;20027;-69
2022/10/15 03:47:48;;;;;;;5.03;2.08;;;;;;;13.38;76.93;100704.66;4973305;28;20102;-69
2022/10/15 03:50:14;;;;;;;3.63;2.00;;;;;;;13.23;76.72;100684.31;4973016;28;20185;-67
2022/10/15 03:52:40;;;;;;;6.45;2.38;;;;;;;13.39;77.28;100706.38;4973390;28;20027;-69
2022/10/15 03:55:06;;;;;;;6.18;2.33;;;;;;;13.37;77.28;100699.38;4971951;28;20035;-69
2022/10/15 03:57:32;;;;;;;6.95;1.90;;;;;;;13.21;77.33;100705.84;4973659;28;20410;-69
2022/10/15 03:59:57;;;;;;;5.60;2.10;;;;;;;13.24;77.57;100711.09;4973584;28;20026;-68
2022/10/15 04:02:23;;;;;;;6.63;1.88;;;;;;;13.04;77.10;100666.44;4973548;28;20027;-69
2022/10/15 04:04:53;;;;;;;5.28;2.20;;;;;;;13.31;76.72;100707.88;4972658;28;20031;-70
2022/10/15 04:07:19;;;;;;;;;;;;;;;13.29;76.45;100709.53;4973794;28;20037;-73
2022/10/15 04:09:44;;;;;;;3.92;2.33;;;;;;;13.29;76.30;100700.88;4973140;28;20009;-71
2022/10/15 04:12:10;;;;;;;8.13;2.75;;;;;;;13.40;76.05;100715.94;4988151;28;20089;-69
2022/10/15 04:14:37;;;;;;;4.45;2.20;;;;;;;13.36;75.19;100703.69;4973162;28;20523;-70
2022/10/15 04:17:02;;;;;;;4.53;1.70;;;;;;;13.48;74.88;100720.47;4979297;28;20058;-70
2022/10/15 04:19:28;;;;;;;7.43;1.88;;;;;;;13.39;75.16;100721.09;4973298;28;20033;-70
2022/10/15 04:21:53;;;;;;;7.00;1.92;;;;;;;13.20;75.83;100712.72;4973292;28;20466;-69
2022/10/15 04:24:18;;;;;;;5.55;1.98;;;;;;;13.23;75.86;100718.00;4973288;28;20037;-70
2022/10/15 04:26:44;;;;;;;6.10;2.17;;;;;;;13.26;75.87;100722.41;4973434;28;20097;-69
2022/10/15 04:29:10;;;;;;;7.70;2.65;;;;;;;13.06;76.37;100703.63;4965348;28;20031;-70
2022/10/15 04:31:36;;;;;;;7.93;2.28;;;;;;;13.20;75.77;100720.50;4967039;28;20050;-70
2022/10/15 04:34:02;;;;;;;6.85;2.35;;;;;;;13.31;75.37;100714.75;4954115;28;20027;-70
2022/10/15 04:36:27;;;;;;;72.40;6.47;;;;;;;13.30;74.59;100687.09;4965690;28;20041;-69
2022/10/15 04:38:53;;;;;;;8.15;2.60;;;;;;;13.59;73.13;100719.97;4990758;28;20038;-70
2022/10/15 04:41:18;;;;;;;7.32;2.75;;;;;;;13.57;73.18;100715.53;4992293;28;20069;-71
2022/10/15 04:43:44;;;;;;;5.47;2.47;;;;;;;13.29;73.40;100686.19;4992100;28;20031;-70
2022/10/15 04:46:09;;;;;;;5.10;2.00;;;;;;;13.27;74.22;100713.78;4987375;28;20088;-70
2022/10/15 04:48:38;;;;;;;4.97;2.30;;;;;;;13.21;74.23;100703.25;4982415;28;20031;-69
2022/10/15 04:51:23;;;;;;;6.00;1.95;;;;;;;13.22;74.05;100695.50;4979789;28;20077;-70
2022/10/15 04:53:48;;;;;;;15.77;7.28;;;;;;;13.39;75.25;100734.91;4979070;28;20023;-68
2022/10/15 04:56:17;;;;;;;103.07;43.78;;;;;;;13.33;74.90;100737.28;4981778;28;20420;-70
2022/10/15 04:58:44;;;;;;;37.75;15.20;;;;;;;13.15;75.50;100734.16;4982722;28;20504;-70
2022/10/15 05:01:14;;;;;;;18.35;8.27;;;;;;;13.22;76.53;100733.50;4995790;28;20101;-70
2022/10/15 05:03:42;;;;;;;8.02;3.15;;;;;;;13.14;75.50;100722.03;4980973;28;20022;-70
2022/10/15 05:06:10;;;;;;;7.07;2.60;;;;;;;13.25;75.99;100731.88;4978930;28;20042;-66
2022/10/15 05:08:37;;;;;;;8.65;2.50;;;;;;;13.30;75.49;100729.44;4981446;28;20034;-69
2022/10/15 05:11:08;;;;;;;5.25;1.95;;;;;;;13.13;74.83;100691.75;4982197;28;20030;-70
2022/10/15 05:13:33;;;;;;;8.35;2.80;;;;;;;13.40;74.99;100730.63;4982016;28;20054;-69
2022/10/15 05:16:19;;;;;;;6.45;2.30;;;;;;;13.42;74.88;100735.03;4979501;28;20117;-69
2022/10/15 05:18:47;;;;;;;6.05;2.55;;;;;;;13.05;75.13;100692.41;4981473;28;20030;-71
2022/10/15 05:21:14;;;;;;;13.40;4.45;;;;;;;13.33;74.77;100737.28;4979607;28;20094;-70
2022/10/15 05:23:40;;;;;;;15.45;5.20;;;;;;;13.45;75.21;100726.44;4980597;28;20032;-67
2022/10/15 05:26:09;;;;;;;22.30;8.40;;;;;;;13.11;75.13;100692.59;4976404;28;20022;-68
2022/10/15 05:28:34;;;;;;;27.20;10.18;;;;;;;13.22;75.97;100742.19;4962575;28;20022;-68
2022/10/15 05:31:12;;;;;;;17.20;6.47;;;;;;;13.12;75.94;100734.94;4981287;28;20033;-68
2022/10/15 05:33:37;;;;;;;11.95;3.70;;;;;;;13.12;75.94;100742.69;4979323;28;20117;-69
2022/10/15 05:36:21;;;;;;;13.48;5.20;;;;;;;13.16;75.25;100738.50;4980862;28;20106;-69
2022/10/15 05:38:51;;;;;;;11.70;5.30;;;;;;;13.10;75.86;100737.47;4980941;28;20027;-74
2022/10/15 05:41:18;;;;;;;11.68;4.93;;;;;;;12.84;75.63;100694.34;4978331;28;20540;-70
2022/10/15 05:43:48;;;;;;;11.35;5.00;;;;;;;13.14;76.23;100743.63;4981115;28;20436;-67
2022/10/15 05:46:13;;;;;;;;;;;;;;;13.24;76.47;100745.66;4984454;28;20037;-70
2022/10/15 05:48:38;;;;;;;14.38;6.22;;;;;;;13.05;76.53;100700.16;4980812;28;20297;-69
2022/10/15 05:51:06;;;;;;;11.45;5.82;;;;;;;13.27;76.07;100744.88;4980941;28;20023;-71
2022/10/15 05:53:32;;;;;;;12.60;6.35;;;;;;;13.39;77.26;100739.22;4982208;28;20101;-70
2022/10/15 05:55:57;;;;;;;10.25;3.35;;;;;;;13.39;75.82;100750.47;4980928;28;20105;-71
2022/10/15 05:58:28;;;;;;;4.75;2.75;;;;;;;13.38;76.49;100743.56;4981339;28;20370;-69
2022/10/15 06:00:58;;;;;;;5.70;2.65;;;;;;;13.48;76.19;100757.66;4982247;28;20036;-74
2022/10/15 06:03:25;;;;;;;6.35;2.75;;;;;;;13.49;75.28;100748.16;4981940;28;20046;-69
2022/10/15 06:05:50;;;;;;;5.70;2.53;;;;;;;13.60;74.62;100775.31;4980199;28;20485;-70
2022/10/15 06:08:16;;;;;;;6.55;3.20;;;;;;;13.66;74.94;100777.22;4981779;28;20026;-69
2022/10/15 06:10:42;;;;;;;7.93;2.65;;;;;;;13.59;74.52;100770.94;4981145;28;20073;-71
2022/10/15 06:13:08;;;;;;;5.97;3.05;;;;;;;13.69;74.79;100778.16;4979854;28;20026;-68
2022/10/15 06:15:37;;;;;;;10.20;4.85;;;;;;;13.73;74.56;100779.13;4977451;28;20065;-69
2022/10/15 06:18:03;;;;;;;23.02;14.60;;;;;;;13.76;74.24;100781.81;4980881;28;20050;-70
2022/10/15 06:20:28;;;;;;;16.30;9.32;;;;;;;13.78;73.55;100785.31;4981931;28;20133;-70
2022/10/15 06:22:58;;;;;;;15.63;9.75;;;;;;;13.85;74.60;100782.06;4977424;28;20022;-69
2022/10/15 06:25:23;;;;;;;13.07;8.27;;;;;;;13.86;74.82;100775.19;4980854;28;20109;-70
2022/10/15 06:27:49;;;;;;;7.32;3.38;;;;;;;13.71;75.22;100773.91;4981969;28;20461;-70
2022/10/15 06:30:14;;;;;;;8.38;3.10;;;;;;;13.75;75.20;100791.31;4981390;28;20129;-70
2022/10/15 06:32:46;;;;;;;14.93;5.68;;;;;;;13.54;74.46;100762.16;4984839;28;20028;-70
2022/10/15 06:35:12;;;;;;;13.45;5.43;;;;;;;13.82;75.02;100794.06;4985913;28;20098;-69
2022/10/15 06:37:37;;;;;;;9.18;5.78;;;;;;;13.82;75.73;100781.09;4984389;28;20111;-70
2022/10/15 06:40:03;;;;;;;15.98;7.88;;;;;;;13.91;74.92;100799.56;4984458;28;20026;-69
2022/10/15 06:42:28;;;;;;;12.88;6.35;;;;;;;13.95;76.26;100798.78;4985469;28;20044;-69
2022/10/15 06:44:54;;;;;;;11.93;6.93;;;;;;;13.99;75.10;100790.25;4980839;28;20106;-70
2022/10/15 06:47:19;;;;;;;8.20;3.00;;;;;;;14.05;72.82;100797.34;4984573;28;20014;-69
2022/10/15 06:49:45;;;;;;;6.05;3.00;;;;;;;14.11;71.80;100794.91;4980760;28;20482;-70
2022/10/15 06:52:10;;;;;;;7.93;3.78;;;;;;;13.93;70.76;100763.25;4998397;28;20118;-72
2022/10/15 06:54:35;;;;;;;5.20;2.30;;;;;;;14.21;71.12;100802.13;4983433;28;20027;-70
2022/10/15 06:57:01;;;;;;;7.45;2.65;;;;;;;14.31;69.68;100805.84;4984657;28;20060;-70
2022/10/15 06:59:26;;;;;;;10.27;3.38;;;;;;;14.37;69.41;100806.00;4984565;28;20027;-69
2022/10/15 07:01:52;;;;;;;8.63;2.50;;;;;;;14.40;69.28;100808.72;4983086;28;20030;-71
2022/10/15 07:04:18;;;;;;;6.20;2.65;;;;;;;14.45;69.73;100811.41;4982510;28;20092;-70
2022/10/15 07:06:44;;;;;;;4.78;2.72;;;;;;;14.50;70.03;100808.94;4981423;28;20039;-70
2022/10/15 07:09:09;;;;;;;8.38;2.20;;;;;;;14.50;68.27;100799.41;4980848;28;20045;-70
2022/10/15 07:11:35;;;;;;;7.78;2.20;;;;;;;14.59;68.01;100809.16;4982418;28;20646;-70
2022/10/15 07:14:01;;;;;;;6.47;2.10;;;;;;;14.56;66.89;100804.75;4956854;28;20034;-70
2022/10/15 07:16:26;;;;;;;4.25;2.42;;;;;;;14.56;66.31;100806.50;4964669;28;20054;-70
2022/10/15 07:18:52;;;;;;;6.80;2.60;;;;;;;14.61;65.91;100810.09;4982378;28;20050;-69
2022/10/15 07:21:17;;;;;;;6.40;2.70;;;;;;;14.69;66.39;100818.09;4980394;28;20034;-69
2022/10/15 07:23:43;;;;;;;4.90;2.35;;;;;;;14.70;65.71;100810.38;4981559;28;20048;-69
2022/10/15 07:26:08;;;;;;;6.07;2.55;;;;;;;14.76;66.63;100806.16;4981999;28;20096;-71
2022/10/15 07:28:33;;;;;;;5.30;2.42;;;;;;;14.76;66.22;100807.03;4979933;28;20421;-69
2022/10/15 07:31:01;;;;;;;5.95;2.72;;;;;;;14.75;66.90;100796.63;4981594;28;20039;-69
2022/10/15 07:33:26;;;;;;;4.32;2.33;;;;;;;14.91;64.71;100803.94;4969597;28;20213;-70
2022/10/15 07:35:52;;;;;;;7.78;2.83;;;;;;;14.94;64.56;100810.94;4970652;28;20137;-69
2022/10/15 07:38:17;;;;;;;8.05;1.95;;;;;;;14.95;63.07;100802.28;4965257;28;20036;-72
2022/10/15 07:40:42;;;;;;;8.20;2.30;;;;;;;15.06;63.51;100803.44;4973115;28;20109;-71
2022/10/15 07:43:08;;;;;;;5.78;2.00;;;;;;;15.11;64.44;100813.94;4971140;28;20047;-70
2022/10/15 07:45:34;;;;;;;5.25;2.38;;;;;;;15.14;63.26;100812.31;4967745;28;20027;-70
2022/10/15 07:48:00;;;;;;;4.57;2.10;;;;;;;15.06;63.91;100800.84;4972764;28;20470;-70
2022/10/15 07:50:26;;;;;;;6.93;2.38;;;;;;;15.24;64.11;100816.00;4966409;28;20038;-70
2022/10/15 07:52:51;;;;;;;5.32;2.30;;;;;;;15.30;63.17;100816.16;4965559;28;20490;-69
2022/10/15 07:55:16;;;;;;;4.65;2.20;;;;;;;15.26;62.63;100813.44;4967368;28;20031;-70
2022/10/15 07:57:42;;;;;;;5.10;2.33;;;;;;;15.26;63.44;100793.50;4965165;28;20031;-70
2022/10/15 08:00:08;;;;;;;10.07;2.78;;;;;;;15.33;62.73;100803.19;4968678;28;20405;-68
2022/10/15 08:02:34;;;;;;;4.88;2.50;;;;;;;15.11;63.78;100772.34;4967017;28;20031;-70
2022/10/15 08:04:59;;;;;;;5.10;2.20;;;;;;;15.46;62.96;100811.28;4964398;28;20094;-70
2022/10/15 08:07:25;;;;;;;9.15;2.53;;;;;;;15.52;63.66;100806.22;4972887;28;20027;-70
2022/10/15 08:09:50;;;;;;;7.28;2.78;;;;;;;15.48;63.43;100809.59;4969378;28;20034;-70
2022/10/15 08:12:16;;;;;;;7.25;2.90;;;;;;;15.44;63.47;100803.44;4967454;28;20042;-70
2022/10/15 08:14:41;;;;;;;7.00;2.65;;;;;;;15.56;63.83;100813.22;4971300;28;20050;-70
2022/10/15 08:17:07;;;;;;;6.97;2.72;;;;;;;15.60;63.56;100816.78;4972244;28;20051;-70
2022/10/15 08:19:32;;;;;;;6.82;3.10;;;;;;;15.65;64.08;100816.06;4971720;28;20033;-70
2022/10/15 08:21:58;;;;;;;7.38;2.78;;;;;;;15.50;64.82;100781.88;4971348;28;20031;-71
2022/10/15 08:24:24;;;;;;;6.07;2.42;;;;;;;15.78;63.93;100814.59;4969624;28;20035;-69
2022/10/15 08:26:49;;;;;;;6.75;2.92;;;;;;;15.83;63.55;100818.19;4968476;28;20414;-73
2022/10/15 08:29:15;;;;;;;5.57;2.60;;;;;;;15.94;63.33;100808.00;4968515;28;20027;-70
2022/10/15 08:31:41;;;;;;;6.32;2.90;;;;;;;16.08;62.81;100810.00;4972369;28;20023;-69
2022/10/15 08:34:07;;;;;;;4.53;2.50;;;;;;;16.18;62.58;100809.34;4971052;28;20464;-67
2022/10/15 08:36:33;;;;;;;10.88;4.05;;;;;;;16.28;64.38;100815.63;4969403;28;20525;-70
2022/10/15 08:38:58;;;;;;;9.32;2.90;;;;;;;16.32;62.88;100805.28;4980892;28;20054;-72
2022/10/15 08:41:39;;;;;;;6.05;2.97;;;;;;;16.38;62.05;100801.91;4982474;28;20401;-68
2022/10/15 08:44:08;;;;;;;7.70;3.63;;;;;;;16.45;62.25;100802.91;4980085;28;20034;-67
2022/10/15 08:46:38;;;;;;;5.68;2.80;;;;;;;16.48;61.17;100802.94;4981180;28;20499;-72
2022/10/15 08:49:04;;;;;;;;;;;;;;;16.52;60.63;100815.16;4979848;28;20045;-69
2022/10/15 08:51:39;;;;;;;6.95;2.60;;;;;;;16.63;60.37;100810.16;4978450;28;19914;-72
2022/10/15 08:54:08;;;;;;;6.85;3.28;;;;;;;16.69;61.27;100810.28;4977481;28;20049;-68
2022/10/15 08:56:42;;;;;;;6.93;2.90;;;;;;;16.82;60.15;100817.44;4978860;28;20066;-69
2022/10/15 08:59:37;;;;;;;14.23;4.47;;;;;;;16.92;62.98;100810.69;4977274;28;20510;-69
2022/10/15 09:02:15;;;;;;;10.43;4.40;;;;;;;16.91;61.03;100824.59;4978276;28;20033;-69
2022/10/15 09:04:58;;;;;;;6.43;3.00;;;;;;;16.92;60.75;100807.19;4981016;28;20096;-69
2022/10/15 09:07:23;;;;;;;32.28;19.33;;;;;;;16.84;61.07;100786.19;4982219;28;20414;-70
2022/10/15 09:09:52;;;;;;;9.65;3.58;;;;;;;16.86;59.83;100781.88;4995803;28;20093;-68
2022/10/15 09:12:36;;;;;;;9.27;2.83;;;;;;;17.10;60.16;100819.66;4981461;28;20110;-69
2022/10/15 09:15:09;;;;;;;7.35;3.42;;;;;;;17.13;60.49;100818.00;4986875;28;20066;-70
2022/10/15 09:17:36;;;;;;;5.13;3.00;;;;;;;17.08;61.78;100817.00;4980550;28;20042;-70
2022/10/15 09:20:06;;;;;;;8.35;3.70;;;;;;;16.93;62.19;100799.38;4977438;28;20038;-69
2022/10/15 09:22:33;;;;;;;11.57;4.72;;;;;;;16.90;63.22;100814.97;4981590;28;20382;-70
2022/10/15 09:25:15;;;;;;;16.17;4.57;;;;;;;16.63;62.86;100781.47;4981271;28;20029;-68
2022/10/15 09:27:41;;;;;;;11.73;4.47;;;;;;;16.80;64.07;100808.72;4973732;28;20877;-71
2022/10/15 09:30:28;;;;;;;10.45;4.40;;;;;;;16.72;63.90;100810.31;4978688;28;20027;-69
2022/10/15 09:33:35;;;;;;;11.73;3.70;;;;;;;16.72;65.72;100823.34;4979818;28;20047;-69
2022/10/15 09:36:24;;;;;;;15.82;4.60;;;;;;;16.59;65.81;100808.34;4931008;29;20083;-69
2022/10/15 09:39:11;;;;;;;56.38;11.30;;;;;;;16.69;66.82;100818.09;4928701;29;20110;-70
2022/10/15 09:42:04;;;;;;;39.45;9.73;;;;;;;16.76;67.90;100817.34;4927182;29;20138;-70
2022/10/15 09:44:36;;;;;;;21.85;7.18;;;;;;;16.79;68.25;100819.13;4911158;29;20404;-66
2022/10/15 09:47:14;;;;;;;9.50;3.30;;;;;;;16.77;67.88;100826.03;4931001;29;20509;-67
2022/10/15 09:49:39;;;;;;;9.88;3.25;;;;;;;16.77;67.56;100823.44;4929916;29;20035;-70
2022/10/15 09:52:41;;;;;;;9.18;3.15;;;;;;;16.68;66.97;100818.94;4908726;29;20049;-71
2022/10/15 09:55:44;;;;;;;9.25;3.90;;;;;;;16.63;67.94;100820.59;4930045;29;20091;-70
2022/10/15 09:58:24;;;;;;;18.00;4.85;;;;;;;16.65;68.83;100824.09;4930441;29;20557;-69
2022/10/15 10:00:50;;;;;;;10.98;3.35;;;;;;;16.71;68.41;100821.59;4930315;29;20499;-70
2022/10/15 10:03:15;;;;;;;8.52;3.20;;;;;;;16.72;68.12;100827.69;4932315;29;20032;-70
2022/10/15 10:05:42;;;;;;;11.95;3.05;;;;;;;16.71;67.80;100824.22;4932308;29;20044;-70
2022/10/15 10:08:20;;;;;;;17.55;4.38;;;;;;;16.61;68.60;100799.72;4934125;29;20086;-70
2022/10/15 10:10:54;;;;;;;24.75;4.78;;;;;;;16.85;67.80;100820.94;4934238;29;20098;-71
2022/10/15 10:13:38;;;;;;;22.23;4.72;;;;;;;16.95;66.68;100826.38;4964221;28;20043;-70
2022/10/15 10:16:09;;;;;;;15.93;5.07;;;;;;;16.90;66.94;100809.75;4975092;28;20043;-70
2022/10/15 10:18:38;;;;;;;9.20;3.35;;;;;;;16.99;67.23;100832.53;4974925;28;20401;-70
2022/10/15 10:21:19;;;;;;;11.82;3.25;;;;;;;16.88;65.78;100815.78;4974826;28;20429;-68
2022/10/15 10:23:45;;;;;;;11.25;3.67;;;;;;;16.94;65.85;100826.38;4974856;28;20416;-71
2022/10/15 10:26:12;;;;;;;18.50;4.70;;;;;;;16.95;66.59;100821.16;4989142;28;20038;-68
2022/10/15 10:28:53;;;;;;;23.25;5.88;;;;;;;17.02;65.60;100826.47;4974620;28;20081;-69
2022/10/15 10:31:31;;;;;;;12.05;3.92;;;;;;;17.02;64.90;100811.69;4974930;28;20166;-73
2022/10/15 10:34:00;;;;;;;9.55;3.45;;;;;;;17.03;64.57;100810.00;4974440;28;20038;-72
2022/10/15 10:36:33;;;;;;;14.00;3.60;;;;;;;17.03;64.97;100797.81;5021820;28;20074;-73
2022/10/15 10:39:14;;;;;;;9.20;3.40;;;;;;;17.23;64.40;100816.38;4983309;28;20038;-71
2022/10/15 10:42:00;;;;;;;8.85;3.15;;;;;;;17.16;63.58;100787.56;4972290;28;20034;-74
2022/10/15 10:44:29;;;;;;;11.10;3.42;;;;;;;17.40;63.75;100811.41;4976836;28;20138;-75
2022/10/15 10:47:03;;;;;;;15.65;4.90;;;;;;;17.46;63.84;100808.03;4974012;28;20035;-74
2022/10/15 10:49:34;;;;;;;11.13;3.53;;;;;;;17.49;64.47;100808.06;4974700;28;20038;-75
2022/10/15 10:52:01;;;;;;;16.77;4.57;;;;;;;17.50;63.12;100799.38;4974676;28;20478;-73
2022/10/15 10:54:28;;;;;;;15.43;4.13;;;;;;;17.63;62.22;100795.19;4962251;28;20039;-78
2022/10/15 10:56:57;;;;;;;19.65;4.32;;;;;;;17.81;61.67;100799.78;4974069;28;20062;-74
2022/10/15 10:59:36;;;;;;;21.98;5.05;;;;;;;17.97;61.36;100802.59;4974176;28;20035;-73
2022/10/15 11:02:05;;;;;;;33.45;8.43;;;;;;;18.01;59.97;100796.56;4989331;28;20097;-76
2022/10/15 11:04:33;;;;;;;23.00;6.07;;;;;;;18.32;58.71;100789.94;4974162;28;20533;-75
2022/10/15 11:07:07;;;;;;;32.58;7.10;;;;;;;18.54;58.20;100798.88;4974754;28;20430;-75
2022/10/15 11:09:48;;;;;;;11.70;4.10;;;;;;;18.43;56.98;100759.53;4962430;28;20579;-75
2022/10/15 11:12:34;;;;;;;18.08;4.80;;;;;;;18.74;57.19;100788.59;4973824;28;20034;-72
2022/10/15 11:15:21;;;;;;;12.18;4.18;;;;;;;18.71;56.68;100785.06;4974055;28;20038;-72
2022/10/15 11:18:18;;;;;;;11.35;3.38;;;;;;;18.67;56.62;100772.84;4970586;28;20055;-70
2022/10/15 11:21:20;;;;;;;10.73;3.00;;;;;;;18.81;56.02;100775.56;4975040;28;20027;-70
2022/10/15 11:23:48;;;;;;;14.23;3.63;;;;;;;19.03;56.41;100774.03;4962130;28;20039;-69
2022/10/15 11:26:32;;;;;;;7.43;3.35;;;;;;;19.19;55.90;100773.25;4967186;28;20086;-70
2022/10/15 11:29:16;;;;;;;11.90;2.88;;;;;;;19.42;55.13;100764.63;4975256;28;20827;-70
2022/10/15 11:31:57;;;;;;;9.40;2.88;;;;;;;19.44;54.52;100764.63;4973943;28;20027;-68
2022/10/15 11:35:01;;;;;;;13.63;3.55;;;;;;;19.14;53.79;100675.50;4974209;28;20138;-71
2022/10/15 11:37:41;;;;;;;9.38;3.15;;;;;;;19.64;52.80;100759.50;4973722;28;20089;-69
2022/10/15 11:40:31;;;;;;;6.15;2.55;;;;;;;19.58;52.46;100755.13;4973865;28;20027;-71